»·PEaware :: N293WK KAPV-KBFL

N293WK :: KAPV-KBFL

FLIGHT INFORMATION

Flight Status: Arrived
Operator: Privately registered:
United States
More flights under this callsign
Pilot: Vinnie C. (35885)
Aircraft: Unknown
(P28S)
More flights by this aircraft type
Origin: KAPV Apple Valley
United States
Destination: KBFL Meadows
United States
More flights between these airports :: More routes between these airports
Route:
File this flight plan on PilotEdge
Remarks:
Altitude:
(Current/Filed)
8,500ft
Speed:
(Current/Filed)
150kts
Departed: 17-Sep-21 12:48 PM
Arrived: 17-Sep-21 01:44 PM
Distance/Time
Traveled:
105nm/0:56
Distance/Time
To Go:
Arrived

Flight Plot

Page will automatically refresh every two minutes.


Map Options




Map Legend


Flown Route
Filed Route
Departure Airport
Arrival Airport
Navaid (VOR, NDB)
Fix

Horizontal Profiles

Position Reports

Time Latitude Longitude Heading Altitude Ground
Speed
17-Sep-21 12:36 34.573597 -117.190347 177 2972ft 0kts
17-Sep-21 12:37 34.573597 -117.190347 177 2972ft 0kts
17-Sep-21 12:38 34.573597 -117.190347 177 2972ft 0kts
17-Sep-21 12:39 34.573597 -117.190347 177 2972ft 0kts
17-Sep-21 12:40 34.573597 -117.190347 177 2972ft 0kts
17-Sep-21 12:41 34.573524 -117.190312 129 2971ft 3kts
17-Sep-21 12:42 34.573424 -117.189228 105 2971ft 5kts
17-Sep-21 12:43 34.574064 -117.188635 20 2975ft 1kts
17-Sep-21 12:44 34.571740 -117.189439 197 2963ft 16kts
17-Sep-21 12:45 34.570220 -117.191593 269 2962ft 9kts
17-Sep-21 12:46 34.570007 -117.193971 182 2960ft 0kts
17-Sep-21 12:47 34.569568 -117.191697 90 2964ft 53kts
17-Sep-21 12:48 34.563911 -117.163917 161 3618ft 98kts
17-Sep-21 12:49 34.535843 -117.171134 197 4440ft 105kts
17-Sep-21 12:50 34.508279 -117.182586 205 5294ft 105kts
17-Sep-21 12:51 34.481610 -117.197693 208 6056ft 106kts
17-Sep-21 12:52 34.457956 -117.217954 253 6770ft 111kts
17-Sep-21 12:53 34.455746 -117.254955 260 7430ft 110kts
17-Sep-21 12:54 34.455711 -117.292326 271 7947ft 112kts
17-Sep-21 12:55 34.460350 -117.330027 277 8421ft 112kts
17-Sep-21 12:56 34.469398 -117.371978 282 8497ft 141kts
17-Sep-21 12:57 34.481285 -117.418092 282 8520ft 142kts
17-Sep-21 12:58 34.491753 -117.464697 281 8508ft 143kts
17-Sep-21 12:59 34.502872 -117.510831 281 8549ft 142kts
17-Sep-21 13:00 34.514292 -117.558726 281 8543ft 150kts
17-Sep-21 13:01 34.525080 -117.607853 280 8601ft 150kts
17-Sep-21 13:02 34.535362 -117.657123 279 8633ft 151kts
17-Sep-21 13:03 34.545359 -117.706693 279 8686ft 147kts
17-Sep-21 13:04 34.556226 -117.753333 281 8667ft 143kts
17-Sep-21 13:05 34.567235 -117.799752 280 8553ft 142kts
17-Sep-21 13:06 34.576818 -117.846521 280 8470ft 143kts
17-Sep-21 13:07 34.588397 -117.892777 282 8410ft 143kts
17-Sep-21 13:08 34.599447 -117.938874 282 8399ft 142kts
17-Sep-21 13:09 34.611229 -117.984950 282 8418ft 142kts
17-Sep-21 13:10 34.623333 -118.031013 283 8421ft 143kts
17-Sep-21 13:11 34.635122 -118.077062 280 8444ft 142kts
17-Sep-21 13:12 34.645689 -118.123588 282 8444ft 143kts
17-Sep-21 13:13 34.657884 -118.169690 285 8464ft 143kts
17-Sep-21 13:14 34.671250 -118.215428 285 8456ft 144kts
17-Sep-21 13:15 34.683008 -118.261876 281 8476ft 143kts
17-Sep-21 13:16 34.694774 -118.308286 284 8486ft 143kts
17-Sep-21 13:17 34.708015 -118.354307 285 8490ft 144kts
17-Sep-21 13:18 34.721222 -118.400446 283 8507ft 144kts
17-Sep-21 13:19 34.733596 -118.446851 285 8525ft 145kts
17-Sep-21 13:20 34.746774 -118.493044 282 8561ft 143kts
17-Sep-21 13:21 34.753770 -118.540864 277 8531ft 144kts
17-Sep-21 13:22 34.762460 -118.588473 285 8522ft 144kts
17-Sep-21 13:23 34.783479 -118.628341 334 8501ft 151kts
17-Sep-21 13:24 34.816366 -118.657824 299 8508ft 147kts
17-Sep-21 13:25 34.839482 -118.699162 302 8558ft 148kts
17-Sep-21 13:26 34.865350 -118.738130 311 8599ft 149kts
17-Sep-21 13:27 34.896676 -118.771798 316 8646ft 149kts
17-Sep-21 13:28 34.932324 -118.798115 333 8675ft 152kts
17-Sep-21 13:29 34.971262 -118.819506 332 8617ft 152kts
17-Sep-21 13:30 35.009815 -118.841101 333 8603ft 152kts
17-Sep-21 13:31 35.048242 -118.863183 333 8584ft 152kts
17-Sep-21 13:32 35.087711 -118.883430 337 8120ft 158kts
17-Sep-21 13:33 35.128905 -118.901815 338 7570ft 156kts
17-Sep-21 13:34 35.169692 -118.919874 339 6996ft 154kts
17-Sep-21 13:35 35.209945 -118.936937 340 6418ft 152kts
17-Sep-21 13:36 35.250033 -118.954083 339 5790ft 153kts
17-Sep-21 13:37 35.290754 -118.967228 351 5196ft 150kts
17-Sep-21 13:38 35.332335 -118.971441 356 4516ft 149kts
17-Sep-21 13:39 35.372461 -118.977461 315 3692ft 144kts
17-Sep-21 13:40 35.396052 -119.010241 313 2140ft 106kts
17-Sep-21 13:41 35.414325 -119.032832 314 1149ft 81kts
17-Sep-21 13:42 35.429069 -119.050448 313 647ft 72kts
17-Sep-21 13:43 35.438186 -119.059974 65 494ft 6kts
17-Sep-21 13:44 35.437577 -119.058481 134 495ft 13kts
17-Sep-21 13:45 35.434862 -119.054144 48 487ft 14kts
17-Sep-21 13:46 35.435664 -119.052403 177 490ft 3kts

Navigation Log

Ident Type
Flight plan parsing failed, navigation log unavailable